sensor_id;sensor_type;location;lat;lon;timestamp;P1;durP1;ratioP1;P2;durP2;ratioP2
15049;SDS011;7622;42.724;23.250;2022-12-29T00:01:24;27.87;;;18.27;;
15049;SDS011;7622;42.724;23.250;2022-12-29T00:03:51;31.13;;;18.63;;
15049;SDS011;7622;42.724;23.250;2022-12-29T00:06:18;29.67;;;18.83;;
15049;SDS011;7622;42.724;23.250;2022-12-29T00:08:45;27.13;;;18.73;;
15049;SDS011;7622;42.724;23.250;2022-12-29T00:11:12;29.87;;;19.50;;
15049;SDS011;7622;42.724;23.250;2022-12-29T00:13:42;30.90;;;19.87;;
15049;SDS011;7622;42.724;23.250;2022-12-29T00:16:28;28.77;;;18.93;;
15049;SDS011;7622;42.724;23.250;2022-12-29T00:18:56;32.37;;;19.60;;
15049;SDS011;7622;42.724;23.250;2022-12-29T00:21:23;32.40;;;19.10;;
15049;SDS011;7622;42.724;23.250;2022-12-29T00:24:09;29.67;;;19.77;;
15049;SDS011;7622;42.724;23.250;2022-12-29T00:26:57;35.63;;;19.50;;
15049;SDS011;7622;42.724;23.250;2022-12-29T00:29:54;37.03;;;23.53;;
15049;SDS011;7622;42.724;23.250;2022-12-29T00:32:38;51.43;;;27.80;;
15049;SDS011;7622;42.724;23.250;2022-12-29T00:35:23;47.20;;;28.03;;
15049;SDS011;7622;42.724;23.250;2022-12-29T00:37:54;50.53;;;29.00;;
15049;SDS011;7622;42.724;23.250;2022-12-29T00:40:41;45.77;;;27.30;;
15049;SDS011;7622;42.724;23.250;2022-12-29T00:43:25;45.77;;;25.33;;
15049;SDS011;7622;42.724;23.250;2022-12-29T00:46:10;45.10;;;25.73;;
15049;SDS011;7622;42.724;23.250;2022-12-29T00:48:37;46.80;;;26.17;;
15049;SDS011;7622;42.724;23.250;2022-12-29T00:51:22;39.17;;;25.20;;
15049;SDS011;7622;42.724;23.250;2022-12-29T00:53:49;39.17;;;25.50;;
15049;SDS011;7622;42.724;23.250;2022-12-29T00:56:16;42.07;;;25.43;;
15049;SDS011;7622;42.724;23.250;2022-12-29T00:58:42;39.43;;;23.60;;
15049;SDS011;7622;42.724;23.250;2022-12-29T01:01:11;38.30;;;24.63;;
15049;SDS011;7622;42.724;23.250;2022-12-29T01:03:38;38.93;;;23.90;;
15049;SDS011;7622;42.724;23.250;2022-12-29T01:06:08;38.47;;;24.87;;
15049;SDS011;7622;42.724;23.250;2022-12-29T01:08:36;43.07;;;24.53;;
15049;SDS011;7622;42.724;23.250;2022-12-29T01:11:03;38.67;;;23.87;;
15049;SDS011;7622;42.724;23.250;2022-12-29T01:13:31;37.30;;;22.90;;
15049;SDS011;7622;42.724;23.250;2022-12-29T01:15:59;34.57;;;21.23;;
15049;SDS011;7622;42.724;23.250;2022-12-29T01:18:27;33.90;;;20.80;;
15049;SDS011;7622;42.724;23.250;2022-12-29T01:20:58;32.83;;;21.37;;
15049;SDS011;7622;42.724;23.250;2022-12-29T01:23:26;40.67;;;22.97;;
15049;SDS011;7622;42.724;23.250;2022-12-29T01:25:53;35.77;;;22.67;;
15049;SDS011;7622;42.724;23.250;2022-12-29T01:28:20;35.63;;;21.17;;
15049;SDS011;7622;42.724;23.250;2022-12-29T01:30:47;39.27;;;22.63;;
15049;SDS011;7622;42.724;23.250;2022-12-29T01:33:14;37.63;;;23.63;;
15049;SDS011;7622;42.724;23.250;2022-12-29T01:35:42;36.33;;;18.77;;
15049;SDS011;7622;42.724;23.250;2022-12-29T01:38:09;33.30;;;20.60;;
15049;SDS011;7622;42.724;23.250;2022-12-29T01:40:42;32.73;;;19.63;;
15049;SDS011;7622;42.724;23.250;2022-12-29T01:43:10;29.07;;;17.30;;
15049;SDS011;7622;42.724;23.250;2022-12-29T01:45:39;22.57;;;14.33;;
15049;SDS011;7622;42.724;23.250;2022-12-29T01:48:10;22.70;;;15.27;;
15049;SDS011;7622;42.724;23.250;2022-12-29T01:50:40;22.67;;;14.80;;
15049;SDS011;7622;42.724;23.250;2022-12-29T01:53:13;19.80;;;15.07;;
15049;SDS011;7622;42.724;23.250;2022-12-29T01:55:45;23.40;;;15.57;;
15049;SDS011;7622;42.724;23.250;2022-12-29T01:58:17;24.13;;;16.00;;
15049;SDS011;7622;42.724;23.250;2022-12-29T02:00:46;32.77;;;18.07;;
15049;SDS011;7622;42.724;23.250;2022-12-29T02:03:13;22.03;;;15.77;;
15049;SDS011;7622;42.724;23.250;2022-12-29T02:05:44;24.47;;;15.87;;
15049;SDS011;7622;42.724;23.250;2022-12-29T02:08:16;24.30;;;16.33;;
15049;SDS011;7622;42.724;23.250;2022-12-29T02:10:43;21.83;;;15.43;;
15049;SDS011;7622;42.724;23.250;2022-12-29T02:13:11;20.90;;;15.93;;
15049;SDS011;7622;42.724;23.250;2022-12-29T02:15:41;21.13;;;15.40;;
15049;SDS011;7622;42.724;23.250;2022-12-29T02:18:23;22.07;;;14.40;;
15049;SDS011;7622;42.724;23.250;2022-12-29T02:24:29;21.87;;;16.13;;
15049;SDS011;7622;42.724;23.250;2022-12-29T02:30:37;23.53;;;15.03;;
15049;SDS011;7622;42.724;23.250;2022-12-29T02:33:28;26.33;;;16.87;;
15049;SDS011;7622;42.724;23.250;2022-12-29T02:36:11;20.30;;;15.53;;
15049;SDS011;7622;42.724;23.250;2022-12-29T02:38:50;22.07;;;14.77;;
15049;SDS011;7622;42.724;23.250;2022-12-29T02:41:26;19.73;;;13.83;;
15049;SDS011;7622;42.724;23.250;2022-12-29T02:43:59;25.47;;;15.07;;
15049;SDS011;7622;42.724;23.250;2022-12-29T02:46:33;21.97;;;15.37;;
15049;SDS011;7622;42.724;23.250;2022-12-29T02:49:05;24.33;;;15.33;;
15049;SDS011;7622;42.724;23.250;2022-12-29T02:51:42;21.70;;;14.63;;
15049;SDS011;7622;42.724;23.250;2022-12-29T02:54:16;24.87;;;16.77;;
15049;SDS011;7622;42.724;23.250;2022-12-29T02:57:01;27.27;;;18.47;;
15049;SDS011;7622;42.724;23.250;2022-12-29T02:59:28;28.97;;;18.57;;
15049;SDS011;7622;42.724;23.250;2022-12-29T03:02:02;27.40;;;18.97;;
15049;SDS011;7622;42.724;23.250;2022-12-29T03:05:05;32.20;;;18.83;;
15049;SDS011;7622;42.724;23.250;2022-12-29T03:07:44;30.27;;;19.63;;
15049;SDS011;7622;42.724;23.250;2022-12-29T03:10:20;29.60;;;19.57;;
15049;SDS011;7622;42.724;23.250;2022-12-29T03:13:01;27.60;;;18.50;;
15049;SDS011;7622;42.724;23.250;2022-12-29T03:15:50;28.60;;;17.73;;
15049;SDS011;7622;42.724;23.250;2022-12-29T03:18:37;28.40;;;18.03;;
15049;SDS011;7622;42.724;23.250;2022-12-29T03:21:13;27.23;;;17.73;;
15049;SDS011;7622;42.724;23.250;2022-12-29T03:23:43;27.27;;;17.13;;
15049;SDS011;7622;42.724;23.250;2022-12-29T03:26:12;24.70;;;16.50;;
15049;SDS011;7622;42.724;23.250;2022-12-29T03:28:44;24.40;;;16.87;;
15049;SDS011;7622;42.724;23.250;2022-12-29T03:31:15;23.60;;;15.83;;
15049;SDS011;7622;42.724;23.250;2022-12-29T03:33:45;25.90;;;16.93;;
15049;SDS011;7622;42.724;23.250;2022-12-29T03:36:16;24.63;;;16.90;;
15049;SDS011;7622;42.724;23.250;2022-12-29T03:38:50;21.60;;;16.30;;
15049;SDS011;7622;42.724;23.250;2022-12-29T03:41:25;25.27;;;16.70;;
15049;SDS011;7622;42.724;23.250;2022-12-29T03:43:56;23.50;;;16.30;;
15049;SDS011;7622;42.724;23.250;2022-12-29T03:46:23;27.53;;;15.87;;
15049;SDS011;7622;42.724;23.250;2022-12-29T03:48:52;21.27;;;14.87;;
15049;SDS011;7622;42.724;23.250;2022-12-29T03:51:19;26.20;;;16.73;;
15049;SDS011;7622;42.724;23.250;2022-12-29T03:53:46;23.23;;;15.83;;
15049;SDS011;7622;42.724;23.250;2022-12-29T03:56:13;24.17;;;15.90;;
15049;SDS011;7622;42.724;23.250;2022-12-29T03:58:40;23.07;;;15.83;;
15049;SDS011;7622;42.724;23.250;2022-12-29T04:01:07;22.83;;;16.03;;
15049;SDS011;7622;42.724;23.250;2022-12-29T04:03:34;23.13;;;15.30;;
15049;SDS011;7622;42.724;23.250;2022-12-29T04:06:02;21.67;;;15.43;;
15049;SDS011;7622;42.724;23.250;2022-12-29T04:08:29;21.57;;;15.30;;
15049;SDS011;7622;42.724;23.250;2022-12-29T04:10:56;22.30;;;16.00;;
15049;SDS011;7622;42.724;23.250;2022-12-29T04:13:22;20.60;;;15.33;;
15049;SDS011;7622;42.724;23.250;2022-12-29T04:15:49;24.83;;;15.67;;
15049;SDS011;7622;42.724;23.250;2022-12-29T04:18:16;22.27;;;14.57;;
15049;SDS011;7622;42.724;23.250;2022-12-29T04:20:44;31.70;;;16.97;;
15049;SDS011;7622;42.724;23.250;2022-12-29T04:23:27;28.60;;;15.80;;
15049;SDS011;7622;42.724;23.250;2022-12-29T04:25:55;25.83;;;16.40;;
15049;SDS011;7622;42.724;23.250;2022-12-29T04:28:22;23.63;;;16.53;;
15049;SDS011;7622;42.724;23.250;2022-12-29T04:30:49;24.10;;;17.47;;
15049;SDS011;7622;42.724;23.250;2022-12-29T04:33:16;24.63;;;17.30;;
15049;SDS011;7622;42.724;23.250;2022-12-29T04:35:43;25.63;;;16.90;;
15049;SDS011;7622;42.724;23.250;2022-12-29T04:38:10;30.00;;;18.10;;
15049;SDS011;7622;42.724;23.250;2022-12-29T04:40:39;28.83;;;17.73;;
15049;SDS011;7622;42.724;23.250;2022-12-29T04:43:07;27.37;;;16.83;;
15049;SDS011;7622;42.724;23.250;2022-12-29T04:45:34;26.77;;;17.53;;
15049;SDS011;7622;42.724;23.250;2022-12-29T04:48:01;23.83;;;16.37;;
15049;SDS011;7622;42.724;23.250;2022-12-29T04:50:27;25.93;;;15.50;;
15049;SDS011;7622;42.724;23.250;2022-12-29T04:52:54;20.63;;;15.30;;
15049;SDS011;7622;42.724;23.250;2022-12-29T04:55:21;26.77;;;16.33;;
15049;SDS011;7622;42.724;23.250;2022-12-29T04:57:50;29.27;;;15.33;;
15049;SDS011;7622;42.724;23.250;2022-12-29T05:00:17;21.07;;;15.60;;
15049;SDS011;7622;42.724;23.250;2022-12-29T05:02:44;25.77;;;15.97;;
15049;SDS011;7622;42.724;23.250;2022-12-29T05:05:11;25.00;;;16.50;;
15049;SDS011;7622;42.724;23.250;2022-12-29T05:07:38;27.77;;;17.17;;
15049;SDS011;7622;42.724;23.250;2022-12-29T05:10:05;26.47;;;17.60;;
15049;SDS011;7622;42.724;23.250;2022-12-29T05:12:33;27.43;;;16.13;;
15049;SDS011;7622;42.724;23.250;2022-12-29T05:15:03;30.20;;;18.23;;
15049;SDS011;7622;42.724;23.250;2022-12-29T05:17:32;28.50;;;17.30;;
15049;SDS011;7622;42.724;23.250;2022-12-29T05:19:59;30.67;;;17.13;;
15049;SDS011;7622;42.724;23.250;2022-12-29T05:22:26;29.80;;;17.63;;
15049;SDS011;7622;42.724;23.250;2022-12-29T05:24:53;31.20;;;18.83;;
15049;SDS011;7622;42.724;23.250;2022-12-29T05:27:20;30.87;;;17.70;;
15049;SDS011;7622;42.724;23.250;2022-12-29T05:29:47;27.57;;;17.93;;
15049;SDS011;7622;42.724;23.250;2022-12-29T05:32:16;28.40;;;17.90;;
15049;SDS011;7622;42.724;23.250;2022-12-29T05:34:46;34.17;;;18.03;;
15049;SDS011;7622;42.724;23.250;2022-12-29T05:37:15;29.60;;;18.33;;
15049;SDS011;7622;42.724;23.250;2022-12-29T05:39:42;28.90;;;18.17;;
15049;SDS011;7622;42.724;23.250;2022-12-29T05:42:09;31.67;;;18.03;;
15049;SDS011;7622;42.724;23.250;2022-12-29T05:44:36;32.97;;;18.57;;
15049;SDS011;7622;42.724;23.250;2022-12-29T05:47:03;26.60;;;17.60;;
15049;SDS011;7622;42.724;23.250;2022-12-29T05:49:32;28.27;;;17.43;;
15049;SDS011;7622;42.724;23.250;2022-12-29T05:51:58;27.20;;;18.17;;
15049;SDS011;7622;42.724;23.250;2022-12-29T05:54:25;31.20;;;20.60;;
15049;SDS011;7622;42.724;23.250;2022-12-29T05:56:52;29.70;;;18.73;;
15049;SDS011;7622;42.724;23.250;2022-12-29T05:59:19;30.20;;;18.10;;
15049;SDS011;7622;42.724;23.250;2022-12-29T06:01:46;30.80;;;20.27;;
15049;SDS011;7622;42.724;23.250;2022-12-29T06:04:13;38.00;;;21.00;;
15049;SDS011;7622;42.724;23.250;2022-12-29T06:06:41;37.30;;;22.27;;
15049;SDS011;7622;42.724;23.250;2022-12-29T06:09:09;40.30;;;23.23;;
15049;SDS011;7622;42.724;23.250;2022-12-29T06:11:36;36.13;;;22.03;;
15049;SDS011;7622;42.724;23.250;2022-12-29T06:14:03;42.07;;;24.23;;
15049;SDS011;7622;42.724;23.250;2022-12-29T06:16:30;35.77;;;22.80;;
15049;SDS011;7622;42.724;23.250;2022-12-29T06:18:57;35.07;;;21.57;;
15049;SDS011;7622;42.724;23.250;2022-12-29T06:21:23;39.67;;;21.67;;
15049;SDS011;7622;42.724;23.250;2022-12-29T06:23:52;35.87;;;21.47;;
15049;SDS011;7622;42.724;23.250;2022-12-29T06:26:18;43.93;;;23.47;;
15049;SDS011;7622;42.724;23.250;2022-12-29T06:28:45;36.30;;;22.20;;
15049;SDS011;7622;42.724;23.250;2022-12-29T06:31:12;42.63;;;25.57;;
15049;SDS011;7622;42.724;23.250;2022-12-29T06:33:38;47.50;;;27.93;;
15049;SDS011;7622;42.724;23.250;2022-12-29T06:36:05;46.17;;;25.73;;
15049;SDS011;7622;42.724;23.250;2022-12-29T06:38:33;40.50;;;26.33;;
15049;SDS011;7622;42.724;23.250;2022-12-29T06:41:01;39.07;;;24.00;;
15049;SDS011;7622;42.724;23.250;2022-12-29T06:43:28;39.97;;;23.90;;
15049;SDS011;7622;42.724;23.250;2022-12-29T06:45:55;31.80;;;21.20;;
15049;SDS011;7622;42.724;23.250;2022-12-29T06:48:22;31.70;;;20.80;;
15049;SDS011;7622;42.724;23.250;2022-12-29T06:50:49;38.93;;;21.93;;
15049;SDS011;7622;42.724;23.250;2022-12-29T06:53:15;33.33;;;21.13;;
15049;SDS011;7622;42.724;23.250;2022-12-29T06:55:42;31.67;;;20.70;;
15049;SDS011;7622;42.724;23.250;2022-12-29T06:58:10;30.70;;;20.47;;
15049;SDS011;7622;42.724;23.250;2022-12-29T07:00:37;30.33;;;19.77;;
15049;SDS011;7622;42.724;23.250;2022-12-29T07:03:04;29.77;;;19.83;;
15049;SDS011;7622;42.724;23.250;2022-12-29T07:05:31;32.90;;;19.57;;
15049;SDS011;7622;42.724;23.250;2022-12-29T07:07:58;29.53;;;19.20;;
15049;SDS011;7622;42.724;23.250;2022-12-29T07:10:26;33.43;;;18.47;;
15049;SDS011;7622;42.724;23.250;2022-12-29T07:12:53;29.23;;;18.00;;
15049;SDS011;7622;42.724;23.250;2022-12-29T07:15:21;29.00;;;17.97;;
15049;SDS011;7622;42.724;23.250;2022-12-29T07:17:48;29.40;;;17.87;;
15049;SDS011;7622;42.724;23.250;2022-12-29T07:20:15;28.20;;;17.80;;
15049;SDS011;7622;42.724;23.250;2022-12-29T07:22:42;29.20;;;18.87;;
15049;SDS011;7622;42.724;23.250;2022-12-29T07:25:09;32.67;;;19.73;;
15049;SDS011;7622;42.724;23.250;2022-12-29T07:27:36;26.93;;;17.83;;
15049;SDS011;7622;42.724;23.250;2022-12-29T07:30:03;35.20;;;18.90;;
15049;SDS011;7622;42.724;23.250;2022-12-29T07:32:33;27.80;;;18.57;;
15049;SDS011;7622;42.724;23.250;2022-12-29T07:35:00;24.73;;;16.40;;
15049;SDS011;7622;42.724;23.250;2022-12-29T07:37:27;26.90;;;16.73;;
15049;SDS011;7622;42.724;23.250;2022-12-29T07:39:54;24.77;;;16.43;;
15049;SDS011;7622;42.724;23.250;2022-12-29T07:42:21;28.30;;;16.43;;
15049;SDS011;7622;42.724;23.250;2022-12-29T07:44:48;28.67;;;16.07;;
15049;SDS011;7622;42.724;23.250;2022-12-29T07:47:14;26.43;;;15.90;;
15049;SDS011;7622;42.724;23.250;2022-12-29T07:49:43;25.30;;;15.43;;
15049;SDS011;7622;42.724;23.250;2022-12-29T07:52:09;24.30;;;14.77;;
15049;SDS011;7622;42.724;23.250;2022-12-29T07:54:36;24.77;;;15.73;;
15049;SDS011;7622;42.724;23.250;2022-12-29T07:57:03;23.73;;;15.83;;
15049;SDS011;7622;42.724;23.250;2022-12-29T07:59:30;24.87;;;15.43;;
15049;SDS011;7622;42.724;23.250;2022-12-29T08:01:57;29.10;;;17.13;;
15049;SDS011;7622;42.724;23.250;2022-12-29T08:04:24;23.93;;;16.57;;
15049;SDS011;7622;42.724;23.250;2022-12-29T08:06:52;27.40;;;17.40;;
15049;SDS011;7622;42.724;23.250;2022-12-29T08:09:19;25.90;;;15.80;;
15049;SDS011;7622;42.724;23.250;2022-12-29T08:11:46;24.03;;;17.57;;
15049;SDS011;7622;42.724;23.250;2022-12-29T08:14:12;27.40;;;18.73;;
15049;SDS011;7622;42.724;23.250;2022-12-29T08:16:39;25.37;;;18.60;;
15049;SDS011;7622;42.724;23.250;2022-12-29T08:19:06;26.20;;;18.13;;
15049;SDS011;7622;42.724;23.250;2022-12-29T08:21:33;30.40;;;19.87;;
15049;SDS011;7622;42.724;23.250;2022-12-29T08:24:01;34.20;;;19.13;;
15049;SDS011;7622;42.724;23.250;2022-12-29T08:26:27;29.83;;;18.93;;
15049;SDS011;7622;42.724;23.250;2022-12-29T08:28:54;30.87;;;20.33;;
15049;SDS011;7622;42.724;23.250;2022-12-29T08:31:22;33.67;;;19.43;;
15049;SDS011;7622;42.724;23.250;2022-12-29T08:33:49;29.70;;;19.43;;
15049;SDS011;7622;42.724;23.250;2022-12-29T08:36:16;31.47;;;19.60;;
15049;SDS011;7622;42.724;23.250;2022-12-29T08:38:43;32.37;;;18.70;;
15049;SDS011;7622;42.724;23.250;2022-12-29T08:41:11;26.33;;;18.63;;
15049;SDS011;7622;42.724;23.250;2022-12-29T08:43:38;33.30;;;19.07;;
15049;SDS011;7622;42.724;23.250;2022-12-29T08:46:05;31.27;;;19.60;;
15049;SDS011;7622;42.724;23.250;2022-12-29T08:48:31;31.60;;;19.77;;
15049;SDS011;7622;42.724;23.250;2022-12-29T08:50:58;29.37;;;19.37;;
15049;SDS011;7622;42.724;23.250;2022-12-29T08:53:25;33.37;;;20.63;;
15049;SDS011;7622;42.724;23.250;2022-12-29T08:55:54;34.07;;;20.97;;
15049;SDS011;7622;42.724;23.250;2022-12-29T08:58:24;37.33;;;20.37;;
15049;SDS011;7622;42.724;23.250;2022-12-29T09:00:51;30.63;;;20.17;;
15049;SDS011;7622;42.724;23.250;2022-12-29T09:03:19;37.47;;;21.40;;
15049;SDS011;7622;42.724;23.250;2022-12-29T09:05:47;32.40;;;19.63;;
15049;SDS011;7622;42.724;23.250;2022-12-29T09:08:14;31.97;;;20.37;;
15049;SDS011;7622;42.724;23.250;2022-12-29T09:10:41;32.93;;;19.83;;
15049;SDS011;7622;42.724;23.250;2022-12-29T09:13:08;31.90;;;18.63;;
15049;SDS011;7622;42.724;23.250;2022-12-29T09:15:36;31.77;;;18.70;;
15049;SDS011;7622;42.724;23.250;2022-12-29T09:18:03;29.87;;;18.53;;
15049;SDS011;7622;42.724;23.250;2022-12-29T09:20:30;25.30;;;17.17;;
15049;SDS011;7622;42.724;23.250;2022-12-29T09:22:57;30.20;;;19.70;;
15049;SDS011;7622;42.724;23.250;2022-12-29T09:25:24;29.77;;;17.83;;
15049;SDS011;7622;42.724;23.250;2022-12-29T09:27:51;29.70;;;18.90;;
15049;SDS011;7622;42.724;23.250;2022-12-29T09:30:18;25.37;;;18.17;;
15049;SDS011;7622;42.724;23.250;2022-12-29T09:32:48;27.70;;;18.93;;
15049;SDS011;7622;42.724;23.250;2022-12-29T09:35:16;29.13;;;17.80;;
15049;SDS011;7622;42.724;23.250;2022-12-29T09:37:43;30.83;;;18.13;;
15049;SDS011;7622;42.724;23.250;2022-12-29T09:40:20;27.53;;;17.60;;
15049;SDS011;7622;42.724;23.250;2022-12-29T09:42:55;31.97;;;19.43;;
15049;SDS011;7622;42.724;23.250;2022-12-29T09:45:44;25.07;;;17.40;;
15049;SDS011;7622;42.724;23.250;2022-12-29T09:48:16;27.07;;;16.83;;
15049;SDS011;7622;42.724;23.250;2022-12-29T09:50:47;25.27;;;17.27;;
15049;SDS011;7622;42.724;23.250;2022-12-29T09:53:18;27.37;;;16.60;;
15049;SDS011;7622;42.724;23.250;2022-12-29T09:55:52;31.97;;;18.90;;
15049;SDS011;7622;42.724;23.250;2022-12-29T09:58:21;32.20;;;17.50;;
15049;SDS011;7622;42.724;23.250;2022-12-29T10:00:56;29.37;;;18.20;;
15049;SDS011;7622;42.724;23.250;2022-12-29T10:03:32;38.00;;;18.70;;
15049;SDS011;7622;42.724;23.250;2022-12-29T10:06:12;29.03;;;18.93;;
15049;SDS011;7622;42.724;23.250;2022-12-29T10:08:44;28.73;;;18.13;;
15049;SDS011;7622;42.724;23.250;2022-12-29T10:11:26;24.17;;;16.77;;
15049;SDS011;7622;42.724;23.250;2022-12-29T10:14:08;26.03;;;17.03;;
15049;SDS011;7622;42.724;23.250;2022-12-29T10:16:46;26.13;;;18.07;;
15049;SDS011;7622;42.724;23.250;2022-12-29T10:19:26;29.27;;;17.93;;
15049;SDS011;7622;42.724;23.250;2022-12-29T10:22:07;22.13;;;16.50;;
15049;SDS011;7622;42.724;23.250;2022-12-29T10:24:46;26.40;;;17.07;;
15049;SDS011;7622;42.724;23.250;2022-12-29T10:27:17;28.37;;;16.93;;
15049;SDS011;7622;42.724;23.250;2022-12-29T10:29:46;26.07;;;16.03;;
15049;SDS011;7622;42.724;23.250;2022-12-29T10:32:20;25.13;;;17.03;;
15049;SDS011;7622;42.724;23.250;2022-12-29T10:34:55;24.63;;;17.20;;
15049;SDS011;7622;42.724;23.250;2022-12-29T10:37:28;29.70;;;17.10;;
15049;SDS011;7622;42.724;23.250;2022-12-29T10:39:59;25.97;;;16.77;;
15049;SDS011;7622;42.724;23.250;2022-12-29T10:42:39;27.60;;;17.17;;
15049;SDS011;7622;42.724;23.250;2022-12-29T10:45:11;23.47;;;16.50;;
15049;SDS011;7622;42.724;23.250;2022-12-29T10:47:42;25.23;;;15.87;;
15049;SDS011;7622;42.724;23.250;2022-12-29T10:50:18;25.47;;;16.30;;
15049;SDS011;7622;42.724;23.250;2022-12-29T10:52:46;30.33;;;17.37;;
15049;SDS011;7622;42.724;23.250;2022-12-29T10:55:15;23.43;;;16.83;;
15049;SDS011;7622;42.724;23.250;2022-12-29T10:57:46;25.30;;;16.53;;
15049;SDS011;7622;42.724;23.250;2022-12-29T11:00:15;25.10;;;17.60;;
15049;SDS011;7622;42.724;23.250;2022-12-29T11:03:02;24.77;;;16.73;;
15049;SDS011;7622;42.724;23.250;2022-12-29T11:05:54;22.93;;;16.47;;
15049;SDS011;7622;42.724;23.250;2022-12-29T11:08:24;29.37;;;16.83;;
15049;SDS011;7622;42.724;23.250;2022-12-29T11:10:58;29.90;;;17.77;;
15049;SDS011;7622;42.724;23.250;2022-12-29T11:13:27;31.50;;;17.63;;
15049;SDS011;7622;42.724;23.250;2022-12-29T11:15:56;22.20;;;16.10;;
15049;SDS011;7622;42.724;23.250;2022-12-29T11:18:23;28.13;;;16.47;;
15049;SDS011;7622;42.724;23.250;2022-12-29T11:20:52;24.17;;;16.73;;
15049;SDS011;7622;42.724;23.250;2022-12-29T11:23:31;25.20;;;17.60;;
15049;SDS011;7622;42.724;23.250;2022-12-29T11:26:06;27.17;;;16.47;;
15049;SDS011;7622;42.724;23.250;2022-12-29T11:28:38;24.63;;;16.80;;
15049;SDS011;7622;42.724;23.250;2022-12-29T11:31:07;28.50;;;18.20;;
15049;SDS011;7622;42.724;23.250;2022-12-29T11:33:35;28.20;;;17.00;;
15049;SDS011;7622;42.724;23.250;2022-12-29T11:36:06;29.23;;;17.20;;
15049;SDS011;7622;42.724;23.250;2022-12-29T11:38:38;29.53;;;15.87;;
15049;SDS011;7622;42.724;23.250;2022-12-29T11:41:09;27.63;;;16.67;;
15049;SDS011;7622;42.724;23.250;2022-12-29T11:43:38;34.40;;;16.30;;
15049;SDS011;7622;42.724;23.250;2022-12-29T11:46:12;20.43;;;15.20;;
15049;SDS011;7622;42.724;23.250;2022-12-29T11:48:42;22.93;;;14.80;;
15049;SDS011;7622;42.724;23.250;2022-12-29T11:51:11;21.63;;;15.33;;
15049;SDS011;7622;42.724;23.250;2022-12-29T11:53:41;24.67;;;15.37;;
15049;SDS011;7622;42.724;23.250;2022-12-29T11:56:10;24.23;;;15.23;;
15049;SDS011;7622;42.724;23.250;2022-12-29T11:58:41;21.00;;;14.97;;
15049;SDS011;7622;42.724;23.250;2022-12-29T12:01:11;24.53;;;16.20;;
15049;SDS011;7622;42.724;23.250;2022-12-29T12:03:44;22.17;;;15.27;;
15049;SDS011;7622;42.724;23.250;2022-12-29T12:06:16;21.90;;;14.50;;
15049;SDS011;7622;42.724;23.250;2022-12-29T12:08:48;25.50;;;14.97;;
15049;SDS011;7622;42.724;23.250;2022-12-29T12:11:20;24.13;;;14.90;;
15049;SDS011;7622;42.724;23.250;2022-12-29T12:13:53;26.97;;;15.53;;
15049;SDS011;7622;42.724;23.250;2022-12-29T12:16:26;23.77;;;14.57;;
15049;SDS011;7622;42.724;23.250;2022-12-29T12:19:01;20.20;;;14.93;;
15049;SDS011;7622;42.724;23.250;2022-12-29T12:21:39;23.00;;;14.60;;
15049;SDS011;7622;42.724;23.250;2022-12-29T12:24:30;22.10;;;14.57;;
15049;SDS011;7622;42.724;23.250;2022-12-29T12:27:09;25.10;;;14.57;;
15049;SDS011;7622;42.724;23.250;2022-12-29T12:29:42;19.53;;;14.17;;
15049;SDS011;7622;42.724;23.250;2022-12-29T12:32:14;24.87;;;14.47;;
15049;SDS011;7622;42.724;23.250;2022-12-29T12:34:48;20.93;;;14.57;;
15049;SDS011;7622;42.724;23.250;2022-12-29T12:40:24;21.10;;;14.13;;
15049;SDS011;7622;42.724;23.250;2022-12-29T12:43:21;26.03;;;15.03;;
15049;SDS011;7622;42.724;23.250;2022-12-29T12:46:06;24.53;;;14.47;;
15049;SDS011;7622;42.724;23.250;2022-12-29T12:48:48;23.10;;;15.30;;
15049;SDS011;7622;42.724;23.250;2022-12-29T12:51:29;24.93;;;15.83;;
15049;SDS011;7622;42.724;23.250;2022-12-29T12:54:11;23.00;;;15.70;;
15049;SDS011;7622;42.724;23.250;2022-12-29T12:56:55;26.37;;;15.40;;
15049;SDS011;7622;42.724;23.250;2022-12-29T12:59:35;28.30;;;15.13;;
15049;SDS011;7622;42.724;23.250;2022-12-29T13:02:17;23.03;;;14.63;;
15049;SDS011;7622;42.724;23.250;2022-12-29T13:08:02;31.77;;;16.63;;
15049;SDS011;7622;42.724;23.250;2022-12-29T13:10:52;29.47;;;16.43;;
15049;SDS011;7622;42.724;23.250;2022-12-29T13:13:35;24.40;;;16.07;;
15049;SDS011;7622;42.724;23.250;2022-12-29T13:16:13;23.53;;;15.80;;
15049;SDS011;7622;42.724;23.250;2022-12-29T13:18:52;28.97;;;16.53;;
15049;SDS011;7622;42.724;23.250;2022-12-29T13:21:30;25.67;;;17.20;;
15049;SDS011;7622;42.724;23.250;2022-12-29T13:24:06;28.40;;;17.17;;
15049;SDS011;7622;42.724;23.250;2022-12-29T13:26:44;28.03;;;17.17;;
15049;SDS011;7622;42.724;23.250;2022-12-29T13:29:18;34.27;;;17.53;;
15049;SDS011;7622;42.724;23.250;2022-12-29T13:31:51;29.83;;;18.63;;
15049;SDS011;7622;42.724;23.250;2022-12-29T13:34:26;28.27;;;18.23;;
15049;SDS011;7622;42.724;23.250;2022-12-29T13:37:00;30.63;;;18.90;;
15049;SDS011;7622;42.724;23.250;2022-12-29T13:39:31;33.53;;;18.70;;
15049;SDS011;7622;42.724;23.250;2022-12-29T13:42:03;31.87;;;18.97;;
15049;SDS011;7622;42.724;23.250;2022-12-29T13:44:32;26.73;;;17.37;;
15049;SDS011;7622;42.724;23.250;2022-12-29T13:47:02;35.20;;;19.40;;
15049;SDS011;7622;42.724;23.250;2022-12-29T13:49:38;31.00;;;19.37;;
15049;SDS011;7622;42.724;23.250;2022-12-29T13:52:08;28.40;;;18.50;;
15049;SDS011;7622;42.724;23.250;2022-12-29T13:54:43;35.67;;;19.10;;
15049;SDS011;7622;42.724;23.250;2022-12-29T13:57:23;30.63;;;17.70;;
15049;SDS011;7622;42.724;23.250;2022-12-29T13:59:59;30.67;;;17.80;;
15049;SDS011;7622;42.724;23.250;2022-12-29T14:02:31;27.97;;;18.43;;
15049;SDS011;7622;42.724;23.250;2022-12-29T14:07:56;26.47;;;17.80;;
15049;SDS011;7622;42.724;23.250;2022-12-29T14:10:28;26.70;;;18.50;;
15049;SDS011;7622;42.724;23.250;2022-12-29T14:13:06;31.57;;;20.23;;
15049;SDS011;7622;42.724;23.250;2022-12-29T14:15:39;31.27;;;18.00;;
15049;SDS011;7622;42.724;23.250;2022-12-29T14:18:12;28.90;;;18.37;;
15049;SDS011;7622;42.724;23.250;2022-12-29T14:20:55;30.37;;;18.00;;
15049;SDS011;7622;42.724;23.250;2022-12-29T14:23:29;32.30;;;18.57;;
15049;SDS011;7622;42.724;23.250;2022-12-29T14:26:10;32.00;;;18.87;;
15049;SDS011;7622;42.724;23.250;2022-12-29T14:28:43;33.67;;;20.23;;
15049;SDS011;7622;42.724;23.250;2022-12-29T14:34:15;27.03;;;17.53;;
15049;SDS011;7622;42.724;23.250;2022-12-29T14:36:54;30.00;;;17.57;;
15049;SDS011;7622;42.724;23.250;2022-12-29T14:39:32;31.87;;;19.10;;
15049;SDS011;7622;42.724;23.250;2022-12-29T14:42:03;34.33;;;19.17;;
15049;SDS011;7622;42.724;23.250;2022-12-29T14:44:34;35.30;;;20.00;;
15049;SDS011;7622;42.724;23.250;2022-12-29T14:47:12;28.90;;;18.17;;
15049;SDS011;7622;42.724;23.250;2022-12-29T14:49:44;34.07;;;19.67;;
15049;SDS011;7622;42.724;23.250;2022-12-29T14:52:13;30.23;;;19.90;;
15049;SDS011;7622;42.724;23.250;2022-12-29T14:54:45;30.47;;;19.53;;
15049;SDS011;7622;42.724;23.250;2022-12-29T14:57:25;31.40;;;20.63;;
15049;SDS011;7622;42.724;23.250;2022-12-29T15:00:00;35.77;;;21.13;;
15049;SDS011;7622;42.724;23.250;2022-12-29T15:02:34;34.20;;;19.07;;
15049;SDS011;7622;42.724;23.250;2022-12-29T15:05:04;34.13;;;20.67;;